Time;durP1;ratioP1;P1;durP2;ratioP2;P2;SDS_P1;SDS_P2;PMS_P1;PMS_P2;Temp;Humidity;BMP_temperature;BMP_pressure;BME280_temperature;BME280_humidity;BME280_pressure;Samples;Min_cycle;Max_cycle;Signal;HPM_P1;HPM_P2
2022/01/11 00:01:03;;;;;;;129.20;19.93;;;;;;;1.46;100.00;100487.06;5108749;28;20649;-83
2022/01/11 00:03:31;;;;;;;136.23;24.50;;;;;;;1.53;100.00;100483.50;5115079;28;20187;-83
2022/01/11 00:06:08;;;;;;;92.30;19.47;;;;;;;1.47;100.00;100482.69;5107699;28;20211;-83
2022/01/11 00:08:39;;;;;;;82.90;18.70;;;;;;;1.55;100.00;100480.91;5121878;28;20199;-83
2022/01/11 00:11:08;;;;;;;129.37;20.90;;;;;;;1.54;100.00;100486.97;5112909;28;20211;-83
2022/01/11 00:13:40;;;;;;;163.30;22.83;;;;;;;1.50;100.00;100488.75;5108488;28;20183;-83
2022/01/11 00:16:11;;;;;;;79.43;20.47;;;;;;;1.56;100.00;100482.63;5117210;28;20191;-83
2022/01/11 00:18:43;;;;;;;102.43;19.93;;;;;;;1.51;100.00;100495.72;5111935;28;20188;-83
2022/01/11 00:21:12;;;;;;;132.07;22.43;;;;;;;1.48;100.00;100487.03;5087118;28;20190;-83
2022/01/11 00:26:27;;;;;;;63.33;17.87;;;;;;;1.54;100.00;100487.84;5117343;28;20195;-83
2022/01/11 00:28:55;;;;;;;83.07;19.10;;;;;;;1.60;100.00;100493.03;5115152;28;20197;-84
2022/01/11 00:31:24;;;;;;;72.83;17.50;;;;;;;1.60;100.00;100494.78;5115090;28;20868;-83
2022/01/11 00:33:53;;;;;;;70.20;18.17;;;;;;;1.64;100.00;100494.78;5115825;28;20197;-83
2022/01/11 00:36:21;;;;;;;80.97;19.77;;;;;;;1.62;100.00;100491.28;5117464;28;20191;-83
2022/01/11 00:38:51;;;;;;;80.90;19.27;;;;;;;1.61;100.00;100497.38;5116549;28;20191;-84
2022/01/11 00:41:20;;;;;;;62.50;18.23;;;;;;;1.67;100.00;100504.34;5115148;28;20203;-83
2022/01/11 00:43:48;;;;;;;59.67;19.23;;;;;;;1.59;100.00;100493.94;5113368;28;20223;-83
2022/01/11 00:46:20;;;;;;;80.53;18.10;;;;;;;1.57;100.00;100500.91;5112096;28;20205;-83
2022/01/11 00:48:51;;;;;;;70.97;17.97;;;;;;;1.57;100.00;100500.91;5119159;28;20187;-83
2022/01/11 00:51:19;;;;;;;88.23;18.20;;;;;;;1.65;100.00;100503.47;5121490;28;20214;-82
2022/01/11 00:53:48;;;;;;;74.93;17.43;;;;;;;1.64;100.00;100505.22;5113951;28;20269;-83
2022/01/11 00:56:18;;;;;;;74.23;17.90;;;;;;;1.52;100.00;100500.06;5111396;28;20191;-84
2022/01/11 00:58:48;;;;;;;105.33;19.47;;;;;;;1.55;100.00;100505.28;5107910;28;20198;-83
2022/01/11 01:01:17;;;;;;;76.67;18.37;;;;;;;1.59;100.00;100503.50;5114288;28;20707;-84
2022/01/11 01:03:45;;;;;;;64.93;17.33;;;;;;;1.58;100.00;100502.63;5116041;28;20191;-83
2022/01/11 01:06:14;;;;;;;68.10;15.57;;;;;;;1.56;100.00;100501.78;5113883;28;20286;-83
2022/01/11 01:08:42;;;;;;;99.30;17.43;;;;;;;1.54;100.00;100505.25;5109561;28;20622;-83
2022/01/11 01:11:10;;;;;;;108.37;17.83;;;;;;;1.45;100.00;100500.97;5109967;28;20226;-83
2022/01/11 01:13:40;;;;;;;88.80;17.53;;;;;;;1.35;100.00;100502.78;5127784;28;20247;-82
2022/01/11 01:16:09;;;;;;;92.50;18.40;;;;;;;1.38;100.00;100507.97;5130971;28;20201;-84
2022/01/11 01:18:37;;;;;;;107.03;17.43;;;;;;;1.35;100.00;100509.72;5117729;28;20188;-83
2022/01/11 01:21:06;;;;;;;69.50;16.67;;;;;;;1.35;100.00;100509.72;5116376;28;20692;-83
2022/01/11 01:23:35;;;;;;;66.37;16.57;;;;;;;1.35;100.00;100510.59;5115644;28;20195;-83
2022/01/11 01:26:04;;;;;;;34.30;13.87;;;;;;;1.37;100.00;100510.59;5113949;28;20282;-82
2022/01/11 01:28:33;;;;;;;87.03;18.13;;;;;;;1.40;100.00;100514.03;5114305;28;20202;-83
2022/01/11 01:31:03;;;;;;;77.43;15.37;;;;;;;1.29;100.00;100513.22;5107258;28;20223;-83
2022/01/11 01:33:35;;;;;;;110.30;18.37;;;;;;;1.17;100.00;100513.28;5111912;28;20202;-84
2022/01/11 01:36:10;;;;;;;101.63;16.57;;;;;;;1.14;100.00;100510.66;5112592;28;20701;-84
2022/01/11 01:38:41;;;;;;;158.70;20.63;;;;;;;1.02;100.00;100522.03;5118724;28;20195;-83
2022/01/11 01:41:14;;;;;;;77.70;15.43;;;;;;;1.07;100.00;100519.41;5119414;28;20195;-83
2022/01/11 01:43:45;;;;;;;76.97;16.87;;;;;;;1.03;100.00;100520.28;5110525;28;20202;-83
2022/01/11 01:46:17;;;;;;;120.17;17.90;;;;;;;1.00;100.00;100530.75;5117329;28;20242;-83
2022/01/11 01:48:46;;;;;;;109.77;17.00;;;;;;;1.02;100.00;100526.38;5106999;28;20225;-83
2022/01/11 01:51:15;;;;;;;131.77;19.63;;;;;;;1.01;100.00;100535.06;5115526;28;20238;-84
2022/01/11 01:53:46;;;;;;;135.63;22.47;;;;;;;0.99;100.00;100547.25;5108649;28;20207;-84
2022/01/11 01:56:17;;;;;;;154.40;21.40;;;;;;;1.07;100.00;100540.28;5110631;28;20194;-83
2022/01/11 01:58:46;;;;;;;227.30;23.33;;;;;;;1.08;100.00;100548.09;5043974;28;20212;-83
2022/01/11 02:01:16;;;;;;;160.93;21.93;;;;;;;1.02;100.00;100542.03;5055816;28;20670;-84
2022/01/11 02:03:47;;;;;;;138.67;22.40;;;;;;;1.14;100.00;100539.38;5057592;28;20276;-83
2022/01/11 02:06:21;;;;;;;148.27;22.93;;;;;;;1.06;100.00;100538.53;5050767;28;20189;-83
2022/01/11 02:08:51;;;;;;;101.80;18.07;;;;;;;1.18;100.00;100540.25;5051022;28;20208;-84
2022/01/11 02:11:21;;;;;;;102.53;19.33;;;;;;;1.11;100.00;100542.00;5052657;28;20223;-83
2022/01/11 02:13:52;;;;;;;100.33;18.53;;;;;;;1.14;100.00;100539.38;5055161;28;20205;-83
2022/01/11 02:16:23;;;;;;;112.93;19.87;;;;;;;0.90;100.00;100544.69;5048557;28;20242;-83
2022/01/11 02:18:53;;;;;;;80.07;18.17;;;;;;;1.01;100.00;100548.13;4988930;28;20211;-83
2022/01/11 02:21:24;;;;;;;102.33;17.93;;;;;;;1.13;100.00;100545.47;4985033;28;20203;-83
2022/01/11 02:23:53;;;;;;;106.73;20.63;;;;;;;1.14;100.00;100550.69;4983540;28;20294;-83
2022/01/11 02:26:22;;;;;;;58.87;15.03;;;;;;;1.12;100.00;100547.22;4988203;28;20214;-84
2022/01/11 02:28:51;;;;;;;86.77;18.80;;;;;;;1.11;100.00;100548.09;4984893;28;20273;-83
2022/01/11 02:31:20;;;;;;;66.93;16.80;;;;;;;1.06;100.00;100547.25;4970327;28;20302;-83
2022/01/11 02:33:50;;;;;;;61.63;17.77;;;;;;;1.04;100.00;100559.41;4968749;28;20198;-83
2022/01/11 02:36:22;;;;;;;53.60;16.90;;;;;;;1.03;100.00;100562.88;5010306;28;20206;-84
2022/01/11 02:38:55;;;;;;;68.50;16.67;;;;;;;1.12;100.00;100562.00;5082291;28;20204;-83
2022/01/11 02:41:27;;;;;;;60.30;16.57;;;;;;;1.07;100.00;100562.03;5088113;28;20204;-84
2022/01/11 02:43:56;;;;;;;62.80;16.40;;;;;;;1.18;100.00;100575.03;5083380;28;20196;-83
2022/01/11 02:46:25;;;;;;;53.10;18.47;;;;;;;1.21;100.00;100572.41;5091883;28;20220;-83
2022/01/11 02:48:57;;;;;;;34.47;15.27;;;;;;;1.19;100.00;100568.06;5072269;28;20230;-84
2022/01/11 02:51:27;;;;;;;31.53;14.70;;;;;;;1.28;100.00;100562.81;5089176;28;20222;-83
2022/01/11 02:53:59;;;;;;;29.57;14.00;;;;;;;1.27;100.00;100564.56;5086111;28;20262;-83
2022/01/11 02:56:27;;;;;;;23.53;13.53;;;;;;;1.23;100.00;100565.44;5084812;28;20206;-84
2022/01/11 02:58:58;;;;;;;22.93;12.73;;;;;;;1.29;100.00;100569.78;5086626;28;20229;-84
2022/01/11 03:01:29;;;;;;;26.07;13.63;;;;;;;1.34;100.00;100568.88;5041694;28;20200;-84
2022/01/11 03:03:58;;;;;;;21.87;12.33;;;;;;;1.25;100.00;100574.13;5090601;28;20203;-83
2022/01/11 03:06:27;;;;;;;23.60;12.50;;;;;;;1.30;100.00;100572.38;5088807;28;20196;-84
2022/01/11 03:08:57;;;;;;;21.80;12.60;;;;;;;1.34;100.00;100568.00;5087988;28;20199;-84
2022/01/11 03:11:32;;;;;;;23.50;13.10;;;;;;;1.33;100.00;100568.88;5091920;28;20216;-84
2022/01/11 03:14:02;;;;;;;24.73;13.60;;;;;;;1.34;100.00;100576.69;5093647;28;20198;-83
2022/01/11 03:16:31;;;;;;;24.70;13.67;;;;;;;1.44;100.00;100574.91;5088316;28;20192;-83
2022/01/11 03:18:59;;;;;;;25.83;12.90;;;;;;;1.52;100.00;100586.22;5093325;28;20195;-83
2022/01/11 03:21:28;;;;;;;22.03;12.57;;;;;;;1.41;100.00;100574.94;5093522;28;20198;-83
2022/01/11 03:23:58;;;;;;;22.73;12.70;;;;;;;1.42;100.00;100587.13;5086761;28;20208;-83
2022/01/11 03:26:26;;;;;;;22.33;12.80;;;;;;;1.42;100.00;100581.91;5086917;28;20203;-83
2022/01/11 03:28:55;;;;;;;23.47;12.00;;;;;;;1.49;100.00;100580.13;5086116;28;20191;-83
2022/01/11 03:31:24;;;;;;;22.10;12.47;;;;;;;1.46;100.00;100581.03;5106967;28;20226;-84
2022/01/11 03:33:52;;;;;;;23.23;12.83;;;;;;;1.50;100.00;100589.72;5109481;28;20202;-84
2022/01/11 03:36:20;;;;;;;21.90;12.90;;;;;;;1.42;100.00;100593.22;5103787;28;20195;-84
2022/01/11 03:38:49;;;;;;;21.77;12.23;;;;;;;1.48;100.00;100581.03;5108665;28;20199;-83
2022/01/11 03:41:18;;;;;;;21.63;12.80;;;;;;;1.36;100.00;100585.41;5113457;28;20187;-84
2022/01/11 03:43:48;;;;;;;20.50;11.90;;;;;;;1.48;100.00;100587.09;5107762;28;20211;-83
2022/01/11 03:46:17;;;;;;;21.47;12.70;;;;;;;1.40;100.00;100592.34;5110850;28;20194;-83
2022/01/11 03:48:45;;;;;;;21.07;11.90;;;;;;;1.39;100.00;100598.44;5106493;28;20270;-84
2022/01/11 03:51:13;;;;;;;22.90;11.77;;;;;;;1.43;100.00;100596.69;5111329;28;20198;-83
2022/01/11 03:53:53;;;;;;;20.80;12.27;;;;;;;1.42;100.00;100594.94;5116144;28;20198;-83
2022/01/11 03:56:22;;;;;;;22.30;13.07;;;;;;;1.47;100.00;100605.41;5113248;28;20244;-83
2022/01/11 03:58:51;;;;;;;19.70;11.83;;;;;;;1.52;100.00;100599.25;5114364;28;20203;-83
2022/01/11 04:01:21;;;;;;;20.27;12.23;;;;;;;1.56;100.00;100602.75;5049514;28;20202;-83
2022/01/11 04:03:51;;;;;;;19.67;12.27;;;;;;;1.50;100.00;100597.53;5049859;28;20203;-83
2022/01/11 04:06:20;;;;;;;19.37;12.47;;;;;;;1.56;100.00;100603.63;5052639;28;20205;-84
2022/01/11 04:08:48;;;;;;;23.43;12.53;;;;;;;1.55;100.00;100601.88;5049094;28;20246;-83
2022/01/11 04:11:17;;;;;;;19.50;12.10;;;;;;;1.55;100.00;100604.50;5050399;28;20304;-84
2022/01/11 04:13:47;;;;;;;22.20;13.10;;;;;;;1.53;100.00;100608.81;5051950;28;20216;-84
2022/01/11 04:16:17;;;;;;;16.90;11.77;;;;;;;1.47;100.00;100608.00;5052414;28;20185;-83
2022/01/11 04:18:45;;;;;;;19.17;11.70;;;;;;;1.43;100.00;100607.13;5062338;28;20194;-83
2022/01/11 04:21:13;;;;;;;20.73;12.30;;;;;;;1.44;100.00;100604.50;5117035;28;20207;-84
2022/01/11 04:23:45;;;;;;;20.33;12.77;;;;;;;1.44;100.00;100603.63;5110676;28;20203;-83
2022/01/11 04:26:13;;;;;;;19.03;11.93;;;;;;;1.47;100.00;100606.25;5109928;28;20199;-83
2022/01/11 04:28:42;;;;;;;20.57;12.47;;;;;;;1.47;100.00;100608.88;5128693;28;20187;-81
2022/01/11 04:31:12;;;;;;;22.13;12.70;;;;;;;1.44;100.00;100614.09;5127138;28;20256;-84
2022/01/11 04:33:43;;;;;;;21.20;12.20;;;;;;;1.42;100.00;100616.69;5114581;28;20277;-83
2022/01/11 04:36:12;;;;;;;23.00;12.60;;;;;;;1.47;100.00;100619.31;5108013;28;20195;-84
2022/01/11 04:38:41;;;;;;;25.17;13.27;;;;;;;1.43;100.00;100615.81;5107399;28;20252;-83
2022/01/11 04:41:09;;;;;;;19.90;12.20;;;;;;;1.46;100.00;100612.38;5111176;28;20194;-83
2022/01/11 04:43:38;;;;;;;20.43;12.53;;;;;;;1.46;100.00;100627.16;5113208;28;20220;-83
2022/01/11 04:46:06;;;;;;;21.33;11.83;;;;;;;1.54;100.00;100620.13;5107971;28;20203;-83
2022/01/11 04:48:39;;;;;;;21.33;12.57;;;;;;;1.57;100.00;100622.75;5108473;28;20222;-83
2022/01/11 04:51:07;;;;;;;23.60;12.87;;;;;;;1.58;100.00;100627.09;5110604;28;20202;-83
2022/01/11 04:53:36;;;;;;;22.63;13.63;;;;;;;1.60;100.00;100621.00;5109409;28;20211;-83
2022/01/11 04:56:05;;;;;;;23.23;13.67;;;;;;;1.53;100.00;100624.50;5110737;28;20660;-84
2022/01/11 04:58:34;;;;;;;25.17;13.70;;;;;;;1.53;100.00;100624.50;5107994;28;20203;-84
2022/01/11 05:01:03;;;;;;;20.83;12.63;;;;;;;1.60;100.00;100620.13;5111808;28;20642;-84
2022/01/11 05:03:33;;;;;;;23.33;12.77;;;;;;;1.55;100.00;100617.56;5115981;28;20195;-84
2022/01/11 05:06:04;;;;;;;23.13;13.37;;;;;;;1.52;100.00;100624.50;5115863;28;20183;-84
2022/01/11 05:08:33;;;;;;;21.87;12.47;;;;;;;1.54;100.00;100627.97;5104421;28;20367;-83
2022/01/11 05:11:01;;;;;;;22.37;12.27;;;;;;;1.63;100.00;100622.72;5110384;28;20203;-84
2022/01/11 05:13:31;;;;;;;24.13;13.03;;;;;;;1.57;100.00;100628.84;5106618;28;20341;-83
2022/01/11 05:16:02;;;;;;;20.57;12.67;;;;;;;1.61;100.00;100624.47;5113099;28;20187;-83
2022/01/11 05:18:31;;;;;;;20.83;12.77;;;;;;;1.69;100.00;100628.78;5106440;28;20187;-83
2022/01/11 05:20:59;;;;;;;20.50;12.43;;;;;;;1.63;100.00;100626.19;5110600;28;20196;-83
2022/01/11 05:23:29;;;;;;;20.00;12.20;;;;;;;1.57;100.00;100622.75;5111449;28;20191;-83
2022/01/11 05:25:59;;;;;;;20.90;13.00;;;;;;;1.61;100.00;100624.47;5108776;28;20198;-84
2022/01/11 05:28:29;;;;;;;24.03;12.97;;;;;;;1.64;100.00;100627.06;5107824;28;20209;-84
2022/01/11 05:30:57;;;;;;;22.50;13.17;;;;;;;1.56;100.00;100631.47;5109016;28;20231;-83
2022/01/11 05:33:26;;;;;;;23.07;13.13;;;;;;;1.64;100.00;100625.34;5109626;28;20226;-83
2022/01/11 05:35:54;;;;;;;22.27;13.00;;;;;;;1.58;100.00;100633.19;5105869;28;20207;-84
2022/01/11 05:38:24;;;;;;;21.57;12.83;;;;;;;1.52;100.00;100634.94;5111466;28;20195;-84
2022/01/11 05:40:56;;;;;;;24.50;12.80;;;;;;;1.48;100.00;100634.09;5108507;28;20198;-83
2022/01/11 05:43:26;;;;;;;22.53;13.40;;;;;;;1.53;100.00;100637.56;5107970;28;20195;-84
2022/01/11 05:45:54;;;;;;;22.10;12.73;;;;;;;1.59;100.00;100641.91;5106594;28;20202;-84
2022/01/11 05:48:22;;;;;;;22.37;13.03;;;;;;;1.56;100.00;100639.31;5107637;28;20191;-84
2022/01/11 05:50:51;;;;;;;20.27;12.60;;;;;;;1.58;100.00;100642.78;5112162;28;20191;-84
2022/01/11 05:53:20;;;;;;;20.20;12.60;;;;;;;1.58;100.00;100645.38;5106704;28;20219;-83
2022/01/11 05:55:48;;;;;;;21.47;13.00;;;;;;;1.65;100.00;100649.72;5106040;28;20187;-84
2022/01/11 05:58:18;;;;;;;20.93;13.40;;;;;;;1.58;100.00;100653.22;5110747;28;20203;-84
2022/01/11 06:00:46;;;;;;;18.37;11.50;;;;;;;1.64;100.00;100651.47;5112296;28;20210;-84
2022/01/11 06:03:15;;;;;;;22.80;12.87;;;;;;;1.54;100.00;100649.72;5108949;28;20194;-84
2022/01/11 06:05:43;;;;;;;20.87;12.97;;;;;;;1.55;100.00;100664.53;5110714;28;20195;-83
2022/01/11 06:08:16;;;;;;;21.37;13.27;;;;;;;1.60;100.00;100654.06;5110473;28;20195;-83
2022/01/11 06:10:45;;;;;;;21.27;13.20;;;;;;;1.63;100.00;100665.38;5102107;28;20203;-84
2022/01/11 06:13:14;;;;;;;22.43;13.23;;;;;;;1.62;100.00;100670.59;5108711;28;20219;-84
2022/01/11 06:15:45;;;;;;;19.03;12.93;;;;;;;1.64;100.00;100664.53;5114387;28;20198;-84
2022/01/11 06:18:13;;;;;;;17.80;11.93;;;;;;;1.58;100.00;100671.50;5108090;28;20194;-83
2022/01/11 06:20:43;;;;;;;20.57;12.67;;;;;;;1.62;100.00;100662.75;5111176;28;20213;-84
2022/01/11 06:23:11;;;;;;;19.53;13.00;;;;;;;1.65;100.00;100666.25;5106498;28;20195;-83
2022/01/11 06:25:40;;;;;;;21.43;12.67;;;;;;;1.64;100.00;100667.13;5107045;28;20225;-83
2022/01/11 06:28:09;;;;;;;20.07;13.03;;;;;;;1.69;100.00;100670.56;5106827;28;20203;-84
2022/01/11 06:30:37;;;;;;;19.70;11.97;;;;;;;1.75;100.00;100672.31;5103384;28;20310;-82
2022/01/11 06:33:09;;;;;;;20.73;12.93;;;;;;;1.71;100.00;100667.94;5109846;28;20211;-83
2022/01/11 06:35:37;;;;;;;18.37;11.83;;;;;;;1.60;100.00;100678.44;5108644;28;20191;-84
2022/01/11 06:38:06;;;;;;;20.20;12.53;;;;;;;1.63;100.00;100667.09;5112996;28;20191;-83
2022/01/11 06:40:35;;;;;;;21.63;12.53;;;;;;;1.77;100.00;100678.38;5048586;28;20193;-83
2022/01/11 06:43:03;;;;;;;18.50;11.90;;;;;;;1.70;100.00;100677.53;5051112;28;20189;-84
2022/01/11 06:45:31;;;;;;;17.40;12.03;;;;;;;1.76;100.00;100671.44;5048812;28;20253;-84
2022/01/11 06:48:00;;;;;;;17.87;11.93;;;;;;;1.75;100.00;100674.06;5043695;28;20197;-83
2022/01/11 06:50:32;;;;;;;19.83;12.40;;;;;;;1.77;100.00;100677.53;5050294;28;20208;-84
2022/01/11 06:53:01;;;;;;;19.67;12.13;;;;;;;1.83;100.00;100682.72;5044845;28;20224;-84
2022/01/11 06:55:29;;;;;;;18.30;12.20;;;;;;;1.75;100.00;100687.97;5047676;28;20192;-83
2022/01/11 06:58:03;;;;;;;19.87;12.30;;;;;;;1.75;100.00;100680.16;5046919;28;20201;-83
2022/01/11 07:00:32;;;;;;;17.57;11.77;;;;;;;1.65;100.00;100687.16;5044084;28;20211;-83
2022/01/11 07:03:01;;;;;;;20.40;12.83;;;;;;;1.72;100.00;100690.59;5045868;28;20296;-83
2022/01/11 07:05:31;;;;;;;18.83;11.57;;;;;;;1.76;100.00;100689.72;5088146;28;20642;-83
2022/01/11 07:08:01;;;;;;;18.80;12.17;;;;;;;1.73;100.00;100700.16;5112673;28;20191;-84
2022/01/11 07:10:29;;;;;;;16.83;10.77;;;;;;;1.73;100.00;100692.31;5110879;28;20207;-83
2022/01/11 07:12:58;;;;;;;17.37;11.80;;;;;;;1.64;100.00;100701.09;5101596;28;20260;-84
2022/01/11 07:15:26;;;;;;;18.57;12.00;;;;;;;1.77;100.00;100695.81;5108806;28;20198;-83
2022/01/11 07:17:54;;;;;;;20.27;12.27;;;;;;;1.70;100.00;100706.25;5110572;28;20213;-83
2022/01/11 07:20:24;;;;;;;18.43;12.17;;;;;;;1.72;100.00;100706.25;5104934;28;20409;-83
2022/01/11 07:22:53;;;;;;;17.47;11.47;;;;;;;1.77;100.00;100703.66;5109328;28;20195;-83
2022/01/11 07:25:22;;;;;;;18.63;12.57;;;;;;;1.73;100.00;100710.59;5112212;28;20205;-83
2022/01/11 07:27:51;;;;;;;18.57;11.40;;;;;;;1.82;100.00;100709.72;5117701;28;20191;-83
2022/01/11 07:30:19;;;;;;;19.00;12.43;;;;;;;1.71;100.00;100713.22;5112934;28;20239;-83
2022/01/11 07:32:47;;;;;;;17.10;11.37;;;;;;;1.71;100.00;100721.06;5110713;28;20190;-83
2022/01/11 07:35:16;;;;;;;17.50;11.90;;;;;;;1.80;100.00;100719.31;5108897;28;20215;-83
2022/01/11 07:37:44;;;;;;;17.70;11.93;;;;;;;1.80;100.00;100722.78;5112922;28;20661;-83
2022/01/11 07:40:14;;;;;;;16.77;12.07;;;;;;;1.79;100.00;100726.25;5116500;28;20226;-83
2022/01/11 07:42:44;;;;;;;15.77;11.30;;;;;;;1.81;100.00;100731.47;5056536;28;20189;-83
2022/01/11 07:45:12;;;;;;;17.73;11.30;;;;;;;1.85;100.00;100731.47;5051629;28;20204;-83
2022/01/11 07:47:40;;;;;;;17.63;12.03;;;;;;;1.89;100.00;100737.56;5047770;28;20200;-83
2022/01/11 07:50:09;;;;;;;18.37;12.53;;;;;;;1.87;100.00;100734.09;5048959;28;20205;-83
2022/01/11 07:52:38;;;;;;;17.87;11.90;;;;;;;1.91;100.00;100734.06;5050569;28;20301;-83
2022/01/11 07:55:07;;;;;;;17.37;11.77;;;;;;;1.85;100.00;100744.53;5050665;28;20224;-84
2022/01/11 07:57:35;;;;;;;16.03;11.27;;;;;;;1.90;100.00;100737.53;5054296;28;20204;-83
2022/01/11 08:00:08;;;;;;;21.57;12.60;;;;;;;1.84;100.00;100740.19;5051126;28;20200;-83
2022/01/11 08:02:37;;;;;;;16.37;11.03;;;;;;;1.84;100.00;100739.34;5048750;28;20201;-83
2022/01/11 08:05:07;;;;;;;15.73;11.33;;;;;;;1.91;100.00;100738.41;5048946;28;20207;-83
2022/01/11 08:07:35;;;;;;;19.80;11.37;;;;;;;1.87;100.00;100739.31;5049257;28;20197;-83
2022/01/11 08:10:04;;;;;;;20.27;12.53;;;;;;;1.83;100.00;100737.56;5052272;28;20280;-83
2022/01/11 08:12:32;;;;;;;17.90;11.23;;;;;;;1.91;100.00;100741.91;5052654;28;20201;-83
2022/01/11 08:15:01;;;;;;;17.23;11.37;;;;;;;1.91;100.00;100741.91;5038245;28;20213;-83
2022/01/11 08:17:31;;;;;;;18.93;11.60;;;;;;;1.83;100.00;100746.28;5051873;28;20216;-83
2022/01/11 08:19:59;;;;;;;18.27;11.80;;;;;;;1.85;100.00;100743.69;5071756;28;20193;-83
2022/01/11 08:22:28;;;;;;;19.87;11.93;;;;;;;1.88;100.00;100751.50;5108618;28;20194;-83
2022/01/11 08:24:56;;;;;;;19.77;12.33;;;;;;;1.84;100.00;100747.16;5116410;28;20198;-83
2022/01/11 08:27:25;;;;;;;18.87;12.00;;;;;;;1.85;100.00;100746.28;5116572;28;20202;-83
2022/01/11 08:29:53;;;;;;;18.10;12.33;;;;;;;1.85;100.00;100747.16;5113024;28;20254;-84
2022/01/11 08:32:22;;;;;;;19.93;12.43;;;;;;;1.92;100.00;100753.22;5106421;28;20236;-83
2022/01/11 08:34:52;;;;;;;17.90;11.37;;;;;;;2.00;100.00;100757.53;5108348;28;20214;-83
2022/01/11 08:37:20;;;;;;;18.80;12.13;;;;;;;2.05;100.00;100773.22;5110627;28;20267;-83
2022/01/11 08:39:49;;;;;;;19.40;12.63;;;;;;;2.11;100.00;100772.31;5113213;28;20221;-84
2022/01/11 08:42:17;;;;;;;19.27;12.17;;;;;;;2.07;100.00;100770.59;5110470;28;20244;-83
2022/01/11 08:44:47;;;;;;;16.80;11.60;;;;;;;2.01;100.00;100767.13;5113019;28;20332;-83
2022/01/11 08:47:17;;;;;;;19.97;11.80;;;;;;;1.95;100.00;100771.50;5110698;28;20194;-83
2022/01/11 08:49:45;;;;;;;19.00;12.13;;;;;;;2.03;100.00;100776.69;5112991;28;20203;-83
2022/01/11 08:52:15;;;;;;;18.70;12.10;;;;;;;2.16;100.00;100781.03;5111653;28;20191;-83
2022/01/11 08:54:44;;;;;;;23.20;12.30;;;;;;;2.14;100.00;100773.19;5110251;28;20287;-82
2022/01/11 08:57:12;;;;;;;21.97;12.63;;;;;;;2.16;100.00;100779.28;5115944;28;20264;-83
2022/01/11 08:59:40;;;;;;;17.97;11.83;;;;;;;2.18;100.00;100779.25;5111304;28;20191;-83
2022/01/11 09:02:09;;;;;;;17.10;11.47;;;;;;;2.13;100.00;100775.81;5107018;28;20187;-83
2022/01/11 09:04:37;;;;;;;20.33;11.30;;;;;;;2.15;100.00;100782.78;5111125;28;20650;-83
2022/01/11 09:07:06;;;;;;;16.07;11.27;;;;;;;2.20;100.00;100777.50;5107335;28;20191;-83
2022/01/11 09:09:36;;;;;;;17.90;11.10;;;;;;;2.20;100.00;100786.22;5115769;28;20187;-84
2022/01/11 09:12:08;;;;;;;17.20;11.27;;;;;;;2.19;100.00;100791.47;5108608;28;20236;-84
2022/01/11 09:14:37;;;;;;;18.87;11.60;;;;;;;2.25;100.00;100791.44;5112637;28;20219;-84
2022/01/11 09:17:05;;;;;;;17.50;11.67;;;;;;;2.42;100.00;100787.03;5115567;28;20191;-84
2022/01/11 09:19:33;;;;;;;17.50;11.30;;;;;;;2.41;100.00;100800.06;5112846;28;20232;-84
2022/01/11 09:22:02;;;;;;;18.33;11.60;;;;;;;2.51;100.00;100801.78;5110219;28;20252;-84
2022/01/11 09:24:37;;;;;;;17.87;10.93;;;;;;;2.47;100.00;100802.69;5116506;28;20202;-84
2022/01/11 09:27:06;;;;;;;21.23;12.13;;;;;;;2.43;100.00;100804.44;5113248;28;20199;-83
2022/01/11 09:29:38;;;;;;;17.17;11.17;;;;;;;2.34;100.00;100803.63;5113067;28;20249;-84
2022/01/11 09:32:08;;;;;;;16.77;11.63;;;;;;;2.49;100.00;100811.38;5113000;28;20188;-83
2022/01/11 09:34:39;;;;;;;16.80;10.90;;;;;;;2.61;100.00;100810.47;5112644;28;20215;-84
2022/01/11 09:37:08;;;;;;;18.93;11.30;;;;;;;2.61;100.00;100800.88;5115588;28;20248;-83
2022/01/11 09:39:39;;;;;;;18.27;11.47;;;;;;;2.55;100.00;100806.13;5065760;28;20715;-83
2022/01/11 09:42:08;;;;;;;18.47;10.70;;;;;;;2.59;100.00;100800.84;5114050;28;20245;-83
2022/01/11 09:44:39;;;;;;;21.00;11.90;;;;;;;2.72;100.00;100799.06;5111107;28;20221;-84
2022/01/11 09:47:09;;;;;;;14.47;10.13;;;;;;;2.67;100.00;100802.56;5115844;28;20187;-83
2022/01/11 09:49:37;;;;;;;17.97;10.30;;;;;;;2.66;100.00;100799.09;5112412;28;20282;-83
2022/01/11 09:52:07;;;;;;;18.50;11.10;;;;;;;2.71;100.00;100799.09;5118365;28;20274;-83
2022/01/11 09:54:36;;;;;;;23.33;11.30;;;;;;;2.79;100.00;100799.88;5115241;28;20202;-83
2022/01/11 09:57:07;;;;;;;17.27;10.67;;;;;;;2.72;100.00;100806.91;5136117;28;20187;-81
2022/01/11 09:59:35;;;;;;;18.93;11.30;;;;;;;2.71;100.00;100805.19;5129761;28;20197;-82
2022/01/11 10:02:05;;;;;;;19.23;10.60;;;;;;;2.75;100.00;100798.19;5129524;28;20248;-83
2022/01/11 10:04:37;;;;;;;17.77;10.63;;;;;;;2.89;100.00;100801.56;5133371;28;20191;-81
2022/01/11 10:07:07;;;;;;;15.30;10.17;;;;;;;2.88;100.00;100792.84;5131971;28;20191;-83
2022/01/11 10:09:44;;;;;;;16.57;10.33;;;;;;;2.98;100.00;100801.50;5136241;28;20282;-81
2022/01/11 10:12:16;;;;;;;14.80;9.80;;;;;;;2.96;100.00;100800.66;5128596;28;20258;-85
2022/01/11 10:14:50;;;;;;;19.27;11.27;;;;;;;2.88;100.00;100802.44;5116026;28;20195;-83
2022/01/11 10:17:22;;;;;;;16.63;10.37;;;;;;;2.99;100.00;100805.88;5113893;28;20199;-83
2022/01/11 10:19:52;;;;;;;16.37;10.13;;;;;;;3.05;100.00;100805.81;5105901;28;20194;-83
2022/01/11 10:22:23;;;;;;;19.70;11.47;;;;;;;3.15;100.00;100807.50;5109850;28;20187;-83
2022/01/11 10:24:53;;;;;;;18.03;10.77;;;;;;;3.22;100.00;100799.63;5108930;28;20183;-83
2022/01/11 10:27:27;;;;;;;18.60;10.63;;;;;;;3.12;100.00;100810.16;5111477;28;20198;-83
2022/01/11 10:29:57;;;;;;;16.50;10.10;;;;;;;3.14;100.00;100792.69;5108614;28;20219;-82
2022/01/11 10:32:32;;;;;;;15.83;10.73;;;;;;;3.09;100.00;100796.22;5107194;28;20191;-83
2022/01/11 10:35:05;;;;;;;15.70;9.87;;;;;;;3.18;100.00;100793.50;5111292;28;20190;-82
2022/01/11 10:37:36;;;;;;;16.30;10.27;;;;;;;3.26;100.00;100793.47;5111052;28;20216;-83
2022/01/11 10:40:13;;;;;;;19.30;10.63;;;;;;;3.27;100.00;100796.06;5108920;28;20191;-83
2022/01/11 10:42:49;;;;;;;18.13;10.57;;;;;;;3.25;100.00;100797.81;5109698;28;20199;-84
2022/01/11 10:45:23;;;;;;;17.77;10.33;;;;;;;3.34;100.00;100799.50;5112826;28;20206;-82
2022/01/11 10:47:58;;;;;;;18.67;10.03;;;;;;;3.42;100.00;100790.72;5115208;28;20187;-82
2022/01/11 10:50:28;;;;;;;17.87;9.90;;;;;;;3.49;100.00;100795.91;5105276;28;20191;-82
2022/01/11 10:52:58;;;;;;;16.63;10.23;;;;;;;3.46;100.00;100794.16;5107625;28;20277;-82
2022/01/11 10:55:28;;;;;;;18.50;10.03;;;;;;;3.53;100.00;100787.13;5115583;28;20214;-82
2022/01/11 10:58:08;;;;;;;16.13;9.97;;;;;;;3.54;100.00;100788.84;5114281;28;20187;-82
2022/01/11 11:00:38;;;;;;;17.20;10.07;;;;;;;3.54;100.00;100788.84;5110878;28;20183;-82
2022/01/11 11:03:10;;;;;;;17.77;10.17;;;;;;;3.70;100.00;100791.31;5111821;28;20195;-82
2022/01/11 11:05:41;;;;;;;16.10;9.93;;;;;;;3.73;100.00;100782.56;5105173;28;20198;-82
2022/01/11 11:08:15;;;;;;;16.37;10.37;;;;;;;3.81;100.00;100775.50;5105434;28;20199;-82
2022/01/11 11:10:49;;;;;;;15.23;10.03;;;;;;;3.83;100.00;100780.72;5108479;28;20641;-82
2022/01/11 11:13:30;;;;;;;18.93;11.00;;;;;;;4.01;100.00;100777.91;5111302;28;20275;-83
2022/01/11 11:16:02;;;;;;;18.47;10.60;;;;;;;3.99;100.00;100779.69;5110832;28;20229;-82
2022/01/11 11:18:34;;;;;;;18.00;10.67;;;;;;;3.99;100.00;100779.69;5107004;28;20299;-82
2022/01/11 11:21:18;;;;;;;17.80;10.57;;;;;;;4.27;100.00;100782.84;5110911;28;20201;-82
2022/01/11 11:23:47;;;;;;;20.97;11.57;;;;;;;;;;5113217;28;20206;-82